sensor_id;sensor_type;location;lat;lon;timestamp;P1;durP1;ratioP1;P2;durP2;ratioP2
44048;SDS011;29717;47.028;15.470;2023-06-22T00:01:59;13.75;;;9.32;;
44048;SDS011;29717;47.028;15.470;2023-06-22T00:04:26;15.45;;;8.98;;
44048;SDS011;29717;47.028;15.470;2023-06-22T00:06:53;17.73;;;9.57;;
44048;SDS011;29717;47.028;15.470;2023-06-22T00:09:20;12.38;;;9.32;;
44048;SDS011;29717;47.028;15.470;2023-06-22T00:11:47;15.43;;;9.02;;
44048;SDS011;29717;47.028;15.470;2023-06-22T00:14:14;15.07;;;9.88;;
44048;SDS011;29717;47.028;15.470;2023-06-22T00:16:40;15.80;;;9.80;;
44048;SDS011;29717;47.028;15.470;2023-06-22T00:19:12;12.70;;;9.20;;
44048;SDS011;29717;47.028;15.470;2023-06-22T00:21:38;13.00;;;9.10;;
44048;SDS011;29717;47.028;15.470;2023-06-22T00:24:05;15.27;;;9.20;;
44048;SDS011;29717;47.028;15.470;2023-06-22T00:26:32;13.13;;;9.27;;
44048;SDS011;29717;47.028;15.470;2023-06-22T00:28:59;16.02;;;9.15;;
44048;SDS011;29717;47.028;15.470;2023-06-22T00:31:26;14.82;;;9.65;;
44048;SDS011;29717;47.028;15.470;2023-06-22T00:33:53;16.45;;;9.55;;
44048;SDS011;29717;47.028;15.470;2023-06-22T00:36:21;12.13;;;9.40;;
44048;SDS011;29717;47.028;15.470;2023-06-22T00:38:50;17.23;;;9.65;;
44048;SDS011;29717;47.028;15.470;2023-06-22T00:41:17;18.27;;;10.50;;
44048;SDS011;29717;47.028;15.470;2023-06-22T00:43:43;18.15;;;10.18;;
44048;SDS011;29717;47.028;15.470;2023-06-22T00:46:11;21.63;;;10.73;;
44048;SDS011;29717;47.028;15.470;2023-06-22T00:48:38;13.57;;;9.63;;
44048;SDS011;29717;47.028;15.470;2023-06-22T00:51:10;20.92;;;9.43;;
44048;SDS011;29717;47.028;15.470;2023-06-22T00:53:38;16.48;;;9.45;;
44048;SDS011;29717;47.028;15.470;2023-06-22T00:56:06;12.52;;;8.73;;
44048;SDS011;29717;47.028;15.470;2023-06-22T00:58:34;14.30;;;9.60;;
44048;SDS011;29717;47.028;15.470;2023-06-22T01:01:02;11.90;;;8.27;;
44048;SDS011;29717;47.028;15.470;2023-06-22T01:03:28;13.90;;;9.10;;
44048;SDS011;29717;47.028;15.470;2023-06-22T01:05:59;15.18;;;10.07;;
44048;SDS011;29717;47.028;15.470;2023-06-22T01:08:31;11.07;;;8.65;;
44048;SDS011;29717;47.028;15.470;2023-06-22T01:11:05;15.32;;;9.38;;
44048;SDS011;29717;47.028;15.470;2023-06-22T01:13:35;18.17;;;9.18;;
44048;SDS011;29717;47.028;15.470;2023-06-22T01:16:06;12.10;;;8.80;;
44048;SDS011;29717;47.028;15.470;2023-06-22T01:18:35;16.30;;;8.95;;
44048;SDS011;29717;47.028;15.470;2023-06-22T01:21:03;13.90;;;9.27;;
44048;SDS011;29717;47.028;15.470;2023-06-22T01:23:36;11.88;;;8.32;;
44048;SDS011;29717;47.028;15.470;2023-06-22T01:26:08;11.50;;;8.98;;
44048;SDS011;29717;47.028;15.470;2023-06-22T01:28:45;18.25;;;10.32;;
44048;SDS011;29717;47.028;15.470;2023-06-22T01:31:13;14.13;;;9.32;;
44048;SDS011;29717;47.028;15.470;2023-06-22T01:33:43;11.25;;;8.75;;
44048;SDS011;29717;47.028;15.470;2023-06-22T01:36:10;12.90;;;9.45;;
44048;SDS011;29717;47.028;15.470;2023-06-22T01:38:37;16.05;;;9.52;;
44048;SDS011;29717;47.028;15.470;2023-06-22T01:41:05;14.45;;;9.30;;
44048;SDS011;29717;47.028;15.470;2023-06-22T01:43:35;15.02;;;9.45;;
44048;SDS011;29717;47.028;15.470;2023-06-22T01:46:03;19.95;;;9.88;;
44048;SDS011;29717;47.028;15.470;2023-06-22T01:48:30;14.57;;;10.10;;
44048;SDS011;29717;47.028;15.470;2023-06-22T01:50:58;13.90;;;10.07;;
44048;SDS011;29717;47.028;15.470;2023-06-22T01:53:25;15.52;;;10.75;;
44048;SDS011;29717;47.028;15.470;2023-06-22T01:55:55;13.68;;;10.43;;
44048;SDS011;29717;47.028;15.470;2023-06-22T01:58:23;12.82;;;9.60;;
44048;SDS011;29717;47.028;15.470;2023-06-22T02:00:54;13.77;;;10.00;;
44048;SDS011;29717;47.028;15.470;2023-06-22T02:03:25;15.77;;;10.35;;
44048;SDS011;29717;47.028;15.470;2023-06-22T02:05:54;21.88;;;11.38;;
44048;SDS011;29717;47.028;15.470;2023-06-22T02:08:23;17.55;;;10.90;;
44048;SDS011;29717;47.028;15.470;2023-06-22T02:10:51;16.63;;;10.60;;
44048;SDS011;29717;47.028;15.470;2023-06-22T02:13:19;16.67;;;10.27;;
44048;SDS011;29717;47.028;15.470;2023-06-22T02:15:49;15.70;;;10.93;;
44048;SDS011;29717;47.028;15.470;2023-06-22T02:18:16;17.98;;;10.70;;
44048;SDS011;29717;47.028;15.470;2023-06-22T02:20:44;13.32;;;10.45;;
44048;SDS011;29717;47.028;15.470;2023-06-22T02:23:11;15.48;;;10.25;;
44048;SDS011;29717;47.028;15.470;2023-06-22T02:25:37;12.63;;;10.32;;
44048;SDS011;29717;47.028;15.470;2023-06-22T02:28:05;17.52;;;9.98;;
44048;SDS011;29717;47.028;15.470;2023-06-22T02:30:31;17.52;;;11.55;;
44048;SDS011;29717;47.028;15.470;2023-06-22T02:32:58;15.20;;;10.65;;
44048;SDS011;29717;47.028;15.470;2023-06-22T02:35:26;17.20;;;10.50;;
44048;SDS011;29717;47.028;15.470;2023-06-22T02:37:57;13.05;;;10.30;;
44048;SDS011;29717;47.028;15.470;2023-06-22T02:40:31;15.90;;;9.85;;
44048;SDS011;29717;47.028;15.470;2023-06-22T02:42:58;13.18;;;10.13;;
44048;SDS011;29717;47.028;15.470;2023-06-22T02:45:27;18.55;;;10.52;;
44048;SDS011;29717;47.028;15.470;2023-06-22T02:47:54;16.33;;;10.10;;
44048;SDS011;29717;47.028;15.470;2023-06-22T02:50:21;18.75;;;10.90;;
44048;SDS011;29717;47.028;15.470;2023-06-22T02:52:48;14.80;;;10.27;;
44048;SDS011;29717;47.028;15.470;2023-06-22T02:55:16;14.05;;;10.15;;
44048;SDS011;29717;47.028;15.470;2023-06-22T02:57:43;13.18;;;10.38;;
44048;SDS011;29717;47.028;15.470;2023-06-22T03:00:12;15.93;;;10.32;;
44048;SDS011;29717;47.028;15.470;2023-06-22T03:02:43;16.55;;;10.95;;
44048;SDS011;29717;47.028;15.470;2023-06-22T03:05:11;13.63;;;10.88;;
44048;SDS011;29717;47.028;15.470;2023-06-22T03:07:39;11.93;;;10.10;;
44048;SDS011;29717;47.028;15.470;2023-06-22T03:10:07;14.68;;;10.80;;
44048;SDS011;29717;47.028;15.470;2023-06-22T03:12:36;15.57;;;10.45;;
44048;SDS011;29717;47.028;15.470;2023-06-22T03:15:04;18.20;;;11.07;;
44048;SDS011;29717;47.028;15.470;2023-06-22T03:17:31;15.32;;;9.88;;
44048;SDS011;29717;47.028;15.470;2023-06-22T03:19:58;16.70;;;10.90;;
44048;SDS011;29717;47.028;15.470;2023-06-22T03:22:25;15.15;;;10.18;;
44048;SDS011;29717;47.028;15.470;2023-06-22T03:24:52;15.35;;;10.45;;
44048;SDS011;29717;47.028;15.470;2023-06-22T03:27:19;14.77;;;10.02;;
44048;SDS011;29717;47.028;15.470;2023-06-22T03:29:48;14.75;;;10.63;;
44048;SDS011;29717;47.028;15.470;2023-06-22T03:32:15;15.02;;;9.50;;
44048;SDS011;29717;47.028;15.470;2023-06-22T03:34:41;15.57;;;10.57;;
44048;SDS011;29717;47.028;15.470;2023-06-22T03:37:15;16.80;;;11.15;;
44048;SDS011;29717;47.028;15.470;2023-06-22T03:39:42;15.48;;;11.32;;
44048;SDS011;29717;47.028;15.470;2023-06-22T03:42:09;12.73;;;10.90;;
44048;SDS011;29717;47.028;15.470;2023-06-22T03:44:36;13.68;;;10.73;;
44048;SDS011;29717;47.028;15.470;2023-06-22T03:47:07;17.85;;;11.95;;
44048;SDS011;29717;47.028;15.470;2023-06-22T03:49:34;13.98;;;11.07;;
44048;SDS011;29717;47.028;15.470;2023-06-22T03:52:01;13.75;;;11.57;;
44048;SDS011;29717;47.028;15.470;2023-06-22T03:54:28;19.27;;;11.52;;
44048;SDS011;29717;47.028;15.470;2023-06-22T03:56:56;17.67;;;12.25;;
44048;SDS011;29717;47.028;15.470;2023-06-22T03:59:23;16.40;;;11.98;;
44048;SDS011;29717;47.028;15.470;2023-06-22T04:01:50;15.32;;;12.25;;
44048;SDS011;29717;47.028;15.470;2023-06-22T04:04:19;15.88;;;12.50;;
44048;SDS011;29717;47.028;15.470;2023-06-22T04:06:46;16.35;;;11.90;;
44048;SDS011;29717;47.028;15.470;2023-06-22T04:09:12;19.25;;;12.15;;
44048;SDS011;29717;47.028;15.470;2023-06-22T04:11:39;16.38;;;11.77;;
44048;SDS011;29717;47.028;15.470;2023-06-22T04:14:06;18.40;;;11.70;;
44048;SDS011;29717;47.028;15.470;2023-06-22T04:16:33;17.70;;;12.20;;
44048;SDS011;29717;47.028;15.470;2023-06-22T04:19:00;15.57;;;11.75;;
44048;SDS011;29717;47.028;15.470;2023-06-22T04:21:28;19.10;;;12.68;;
44048;SDS011;29717;47.028;15.470;2023-06-22T04:23:55;18.52;;;12.18;;
44048;SDS011;29717;47.028;15.470;2023-06-22T04:26:22;17.98;;;12.18;;
44048;SDS011;29717;47.028;15.470;2023-06-22T04:28:48;19.27;;;12.65;;
44048;SDS011;29717;47.028;15.470;2023-06-22T04:31:20;13.55;;;11.80;;
44048;SDS011;29717;47.028;15.470;2023-06-22T04:33:57;16.38;;;11.50;;
44048;SDS011;29717;47.028;15.470;2023-06-22T04:36:32;19.80;;;12.20;;
44048;SDS011;29717;47.028;15.470;2023-06-22T04:39:04;20.13;;;12.45;;
44048;SDS011;29717;47.028;15.470;2023-06-22T04:41:31;15.75;;;11.98;;
44048;SDS011;29717;47.028;15.470;2023-06-22T04:44:08;17.85;;;12.60;;
44048;SDS011;29717;47.028;15.470;2023-06-22T04:46:34;16.60;;;12.60;;
44048;SDS011;29717;47.028;15.470;2023-06-22T04:49:06;17.92;;;12.68;;
44048;SDS011;29717;47.028;15.470;2023-06-22T04:51:41;20.10;;;12.68;;
44048;SDS011;29717;47.028;15.470;2023-06-22T04:54:08;18.60;;;12.40;;
44048;SDS011;29717;47.028;15.470;2023-06-22T04:56:35;17.40;;;12.32;;
44048;SDS011;29717;47.028;15.470;2023-06-22T04:59:02;16.20;;;12.50;;
44048;SDS011;29717;47.028;15.470;2023-06-22T05:01:30;21.40;;;13.48;;
44048;SDS011;29717;47.028;15.470;2023-06-22T05:03:57;17.67;;;12.93;;
44048;SDS011;29717;47.028;15.470;2023-06-22T05:06:26;19.83;;;12.20;;
44048;SDS011;29717;47.028;15.470;2023-06-22T05:08:55;15.85;;;11.57;;
44048;SDS011;29717;47.028;15.470;2023-06-22T05:11:24;18.95;;;12.38;;
44048;SDS011;29717;47.028;15.470;2023-06-22T05:13:51;18.45;;;12.80;;
44048;SDS011;29717;47.028;15.470;2023-06-22T05:16:18;16.10;;;12.48;;
44048;SDS011;29717;47.028;15.470;2023-06-22T05:18:49;17.90;;;12.75;;
44048;SDS011;29717;47.028;15.470;2023-06-22T05:21:16;20.20;;;12.98;;
44048;SDS011;29717;47.028;15.470;2023-06-22T05:23:43;18.73;;;12.27;;
44048;SDS011;29717;47.028;15.470;2023-06-22T05:26:11;17.20;;;12.38;;
44048;SDS011;29717;47.028;15.470;2023-06-22T05:28:38;16.48;;;12.75;;
44048;SDS011;29717;47.028;15.470;2023-06-22T05:31:05;19.25;;;12.77;;
44048;SDS011;29717;47.028;15.470;2023-06-22T05:33:31;21.77;;;12.45;;
44048;SDS011;29717;47.028;15.470;2023-06-22T05:35:58;19.17;;;12.77;;
44048;SDS011;29717;47.028;15.470;2023-06-22T05:38:25;16.75;;;12.95;;
44048;SDS011;29717;47.028;15.470;2023-06-22T05:40:52;15.60;;;12.38;;
44048;SDS011;29717;47.028;15.470;2023-06-22T05:43:20;16.92;;;12.13;;
44048;SDS011;29717;47.028;15.470;2023-06-22T05:45:46;23.02;;;13.20;;
44048;SDS011;29717;47.028;15.470;2023-06-22T05:48:13;21.23;;;13.15;;
44048;SDS011;29717;47.028;15.470;2023-06-22T05:50:43;14.60;;;11.95;;
44048;SDS011;29717;47.028;15.470;2023-06-22T05:53:09;16.70;;;12.63;;
44048;SDS011;29717;47.028;15.470;2023-06-22T05:55:36;17.67;;;12.15;;
44048;SDS011;29717;47.028;15.470;2023-06-22T05:58:03;19.27;;;12.18;;
44048;SDS011;29717;47.028;15.470;2023-06-22T06:00:31;15.95;;;11.60;;
44048;SDS011;29717;47.028;15.470;2023-06-22T06:02:59;18.67;;;12.50;;
44048;SDS011;29717;47.028;15.470;2023-06-22T06:05:28;18.85;;;11.68;;
44048;SDS011;29717;47.028;15.470;2023-06-22T06:07:55;21.10;;;11.57;;
44048;SDS011;29717;47.028;15.470;2023-06-22T06:10:22;20.77;;;12.55;;
44048;SDS011;29717;47.028;15.470;2023-06-22T06:12:49;19.63;;;12.10;;
44048;SDS011;29717;47.028;15.470;2023-06-22T06:15:15;13.40;;;11.57;;
44048;SDS011;29717;47.028;15.470;2023-06-22T06:17:47;21.02;;;11.98;;
44048;SDS011;29717;47.028;15.470;2023-06-22T06:20:14;17.13;;;12.07;;
44048;SDS011;29717;47.028;15.470;2023-06-22T06:22:41;13.90;;;11.10;;
44048;SDS011;29717;47.028;15.470;2023-06-22T06:25:09;19.30;;;11.60;;
44048;SDS011;29717;47.028;15.470;2023-06-22T06:27:41;19.55;;;11.80;;
44048;SDS011;29717;47.028;15.470;2023-06-22T06:30:09;14.23;;;10.95;;
44048;SDS011;29717;47.028;15.470;2023-06-22T06:32:36;13.35;;;10.05;;
44048;SDS011;29717;47.028;15.470;2023-06-22T06:35:06;15.48;;;10.98;;
44048;SDS011;29717;47.028;15.470;2023-06-22T06:37:35;15.35;;;11.10;;
44048;SDS011;29717;47.028;15.470;2023-06-22T06:40:02;15.98;;;11.30;;
44048;SDS011;29717;47.028;15.470;2023-06-22T06:42:32;14.68;;;10.88;;
44048;SDS011;29717;47.028;15.470;2023-06-22T06:44:59;11.98;;;9.80;;
44048;SDS011;29717;47.028;15.470;2023-06-22T06:47:25;18.60;;;10.52;;
44048;SDS011;29717;47.028;15.470;2023-06-22T06:49:52;14.40;;;10.30;;
44048;SDS011;29717;47.028;15.470;2023-06-22T06:52:22;14.98;;;10.35;;
44048;SDS011;29717;47.028;15.470;2023-06-22T06:54:49;13.40;;;10.20;;
44048;SDS011;29717;47.028;15.470;2023-06-22T06:57:17;11.70;;;8.90;;
44048;SDS011;29717;47.028;15.470;2023-06-22T06:59:44;13.63;;;9.43;;
44048;SDS011;29717;47.028;15.470;2023-06-22T07:02:10;14.55;;;10.25;;
44048;SDS011;29717;47.028;15.470;2023-06-22T07:04:40;13.93;;;9.75;;
44048;SDS011;29717;47.028;15.470;2023-06-22T07:07:07;14.68;;;9.27;;
44048;SDS011;29717;47.028;15.470;2023-06-22T07:09:35;12.68;;;8.80;;
44048;SDS011;29717;47.028;15.470;2023-06-22T07:12:02;17.58;;;9.27;;
44048;SDS011;29717;47.028;15.470;2023-06-22T07:14:28;11.35;;;8.23;;
44048;SDS011;29717;47.028;15.470;2023-06-22T07:16:56;14.13;;;9.23;;
44048;SDS011;29717;47.028;15.470;2023-06-22T07:19:26;11.13;;;8.40;;
44048;SDS011;29717;47.028;15.470;2023-06-22T07:21:53;13.68;;;8.15;;
44048;SDS011;29717;47.028;15.470;2023-06-22T07:24:20;17.25;;;9.73;;
44048;SDS011;29717;47.028;15.470;2023-06-22T07:26:49;16.63;;;8.63;;
44048;SDS011;29717;47.028;15.470;2023-06-22T07:29:17;14.63;;;8.55;;
44048;SDS011;29717;47.028;15.470;2023-06-22T07:31:45;13.43;;;7.63;;
44048;SDS011;29717;47.028;15.470;2023-06-22T07:34:12;10.18;;;7.63;;
44048;SDS011;29717;47.028;15.470;2023-06-22T07:36:38;12.50;;;8.05;;
44048;SDS011;29717;47.028;15.470;2023-06-22T07:39:05;17.85;;;9.35;;
44048;SDS011;29717;47.028;15.470;2023-06-22T07:41:32;13.60;;;8.65;;
44048;SDS011;29717;47.028;15.470;2023-06-22T07:44:01;12.07;;;8.48;;
44048;SDS011;29717;47.028;15.470;2023-06-22T07:46:29;15.57;;;9.43;;
44048;SDS011;29717;47.028;15.470;2023-06-22T07:48:56;15.13;;;8.90;;
44048;SDS011;29717;47.028;15.470;2023-06-22T07:51:24;13.65;;;8.70;;
44048;SDS011;29717;47.028;15.470;2023-06-22T07:53:51;11.40;;;8.50;;
44048;SDS011;29717;47.028;15.470;2023-06-22T07:56:18;12.65;;;8.05;;
44048;SDS011;29717;47.028;15.470;2023-06-22T07:58:46;13.70;;;8.10;;
44048;SDS011;29717;47.028;15.470;2023-06-22T08:01:15;13.15;;;8.43;;
44048;SDS011;29717;47.028;15.470;2023-06-22T08:03:42;12.13;;;8.05;;
44048;SDS011;29717;47.028;15.470;2023-06-22T08:06:11;10.27;;;7.55;;
44048;SDS011;29717;47.028;15.470;2023-06-22T08:08:37;10.35;;;7.85;;
44048;SDS011;29717;47.028;15.470;2023-06-22T08:11:04;13.68;;;7.05;;
44048;SDS011;29717;47.028;15.470;2023-06-22T08:13:34;12.30;;;7.43;;
44048;SDS011;29717;47.028;15.470;2023-06-22T08:16:01;12.38;;;7.03;;
44048;SDS011;29717;47.028;15.470;2023-06-22T08:18:34;11.40;;;6.57;;
44048;SDS011;29717;47.028;15.470;2023-06-22T08:21:00;11.70;;;7.13;;
44048;SDS011;29717;47.028;15.470;2023-06-22T08:23:27;11.05;;;7.20;;
44048;SDS011;29717;47.028;15.470;2023-06-22T08:25:54;8.57;;;6.72;;
44048;SDS011;29717;47.028;15.470;2023-06-22T08:28:21;15.23;;;6.72;;
44048;SDS011;29717;47.028;15.470;2023-06-22T08:30:47;10.60;;;6.85;;
44048;SDS011;29717;47.028;15.470;2023-06-22T08:33:14;12.70;;;6.80;;
44048;SDS011;29717;47.028;15.470;2023-06-22T08:35:42;10.07;;;6.60;;
44048;SDS011;29717;47.028;15.470;2023-06-22T08:38:09;12.65;;;7.05;;
44048;SDS011;29717;47.028;15.470;2023-06-22T08:40:36;8.48;;;6.40;;
44048;SDS011;29717;47.028;15.470;2023-06-22T08:43:02;11.35;;;6.97;;
44048;SDS011;29717;47.028;15.470;2023-06-22T08:45:29;10.45;;;6.90;;
44048;SDS011;29717;47.028;15.470;2023-06-22T08:47:56;16.20;;;6.90;;
44048;SDS011;29717;47.028;15.470;2023-06-22T08:50:22;14.10;;;6.55;;
44048;SDS011;29717;47.028;15.470;2023-06-22T08:52:50;8.50;;;6.43;;
44048;SDS011;29717;47.028;15.470;2023-06-22T08:55:17;10.05;;;6.65;;
44048;SDS011;29717;47.028;15.470;2023-06-22T08:57:44;9.93;;;6.28;;
44048;SDS011;29717;47.028;15.470;2023-06-22T09:00:12;7.75;;;6.18;;
44048;SDS011;29717;47.028;15.470;2023-06-22T09:02:45;10.43;;;6.60;;
44048;SDS011;29717;47.028;15.470;2023-06-22T09:05:12;9.73;;;5.72;;
44048;SDS011;29717;47.028;15.470;2023-06-22T09:07:39;9.80;;;6.30;;
44048;SDS011;29717;47.028;15.470;2023-06-22T09:10:24;12.77;;;7.13;;
44048;SDS011;29717;47.028;15.470;2023-06-22T09:12:54;7.03;;;5.80;;
44048;SDS011;29717;47.028;15.470;2023-06-22T09:15:20;12.18;;;6.70;;
44048;SDS011;29717;47.028;15.470;2023-06-22T09:17:47;11.77;;;6.40;;
44048;SDS011;29717;47.028;15.470;2023-06-22T09:20:14;8.50;;;6.03;;
44048;SDS011;29717;47.028;15.470;2023-06-22T09:22:41;11.40;;;7.00;;
44048;SDS011;29717;47.028;15.470;2023-06-22T09:25:08;11.45;;;6.70;;
44048;SDS011;29717;47.028;15.470;2023-06-22T09:27:36;11.70;;;6.50;;
44048;SDS011;29717;47.028;15.470;2023-06-22T09:30:05;7.30;;;6.20;;
44048;SDS011;29717;47.028;15.470;2023-06-22T09:32:32;9.30;;;6.38;;
44048;SDS011;29717;47.028;15.470;2023-06-22T09:35:02;9.30;;;6.70;;
44048;SDS011;29717;47.028;15.470;2023-06-22T09:37:31;9.18;;;6.60;;
44048;SDS011;29717;47.028;15.470;2023-06-22T09:39:57;12.50;;;7.10;;
44048;SDS011;29717;47.028;15.470;2023-06-22T09:42:24;15.23;;;7.15;;
44048;SDS011;29717;47.028;15.470;2023-06-22T09:44:53;12.05;;;7.03;;
44048;SDS011;29717;47.028;15.470;2023-06-22T09:47:19;13.82;;;6.70;;
44048;SDS011;29717;47.028;15.470;2023-06-22T09:49:48;10.07;;;7.03;;
44048;SDS011;29717;47.028;15.470;2023-06-22T09:52:15;10.02;;;7.03;;
44048;SDS011;29717;47.028;15.470;2023-06-22T09:54:42;7.78;;;6.50;;
44048;SDS011;29717;47.028;15.470;2023-06-22T09:57:09;9.23;;;6.18;;
44048;SDS011;29717;47.028;15.470;2023-06-22T09:59:36;9.25;;;6.38;;
44048;SDS011;29717;47.028;15.470;2023-06-22T10:02:05;11.15;;;6.47;;
44048;SDS011;29717;47.028;15.470;2023-06-22T10:04:33;7.95;;;6.63;;
44048;SDS011;29717;47.028;15.470;2023-06-22T10:07:00;13.13;;;6.72;;
44048;SDS011;29717;47.028;15.470;2023-06-22T10:09:34;11.90;;;6.45;;
44048;SDS011;29717;47.028;15.470;2023-06-22T10:12:06;9.68;;;6.80;;
44048;SDS011;29717;47.028;15.470;2023-06-22T10:14:33;9.30;;;5.93;;
44048;SDS011;29717;47.028;15.470;2023-06-22T10:17:14;7.80;;;6.55;;
44048;SDS011;29717;47.028;15.470;2023-06-22T10:19:43;11.93;;;6.43;;
44048;SDS011;29717;47.028;15.470;2023-06-22T10:22:12;10.75;;;6.78;;
44048;SDS011;29717;47.028;15.470;2023-06-22T10:24:39;10.90;;;5.88;;
44048;SDS011;29717;47.028;15.470;2023-06-22T10:27:09;11.40;;;6.07;;
44048;SDS011;29717;47.028;15.470;2023-06-22T10:29:36;10.90;;;6.35;;
44048;SDS011;29717;47.028;15.470;2023-06-22T10:32:09;9.05;;;6.20;;
44048;SDS011;29717;47.028;15.470;2023-06-22T10:35:09;10.88;;;6.43;;
44048;SDS011;29717;47.028;15.470;2023-06-22T10:37:33;9.88;;;5.82;;
44048;SDS011;29717;47.028;15.470;2023-06-22T10:40:13;10.77;;;5.65;;
44048;SDS011;29717;47.028;15.470;2023-06-22T10:42:40;10.25;;;6.40;;
44048;SDS011;29717;47.028;15.470;2023-06-22T10:45:07;9.82;;;6.07;;
44048;SDS011;29717;47.028;15.470;2023-06-22T10:47:34;7.28;;;6.20;;
44048;SDS011;29717;47.028;15.470;2023-06-22T10:50:07;10.05;;;5.88;;
44048;SDS011;29717;47.028;15.470;2023-06-22T10:52:37;10.15;;;6.38;;
44048;SDS011;29717;47.028;15.470;2023-06-22T10:55:07;11.95;;;6.50;;
44048;SDS011;29717;47.028;15.470;2023-06-22T10:57:35;10.48;;;6.43;;
44048;SDS011;29717;47.028;15.470;2023-06-22T11:00:04;12.70;;;6.50;;
44048;SDS011;29717;47.028;15.470;2023-06-22T11:02:36;7.65;;;5.68;;
44048;SDS011;29717;47.028;15.470;2023-06-22T11:05:03;8.35;;;6.18;;
44048;SDS011;29717;47.028;15.470;2023-06-22T11:07:36;8.98;;;5.93;;
44048;SDS011;29717;47.028;15.470;2023-06-22T11:10:06;10.85;;;6.70;;
44048;SDS011;29717;47.028;15.470;2023-06-22T11:12:33;8.48;;;6.00;;
44048;SDS011;29717;47.028;15.470;2023-06-22T11:15:02;13.50;;;5.95;;
44048;SDS011;29717;47.028;15.470;2023-06-22T11:17:29;12.15;;;6.40;;
44048;SDS011;29717;47.028;15.470;2023-06-22T11:19:56;10.50;;;6.68;;
44048;SDS011;29717;47.028;15.470;2023-06-22T11:22:22;10.73;;;7.15;;
44048;SDS011;29717;47.028;15.470;2023-06-22T11:24:49;9.90;;;6.32;;
44048;SDS011;29717;47.028;15.470;2023-06-22T11:27:17;12.27;;;6.80;;
44048;SDS011;29717;47.028;15.470;2023-06-22T11:29:44;10.57;;;6.50;;
44048;SDS011;29717;47.028;15.470;2023-06-22T11:32:11;8.13;;;6.13;;
44048;SDS011;29717;47.028;15.470;2023-06-22T11:34:39;13.98;;;7.03;;
44048;SDS011;29717;47.028;15.470;2023-06-22T11:37:06;11.65;;;6.53;;
44048;SDS011;29717;47.028;15.470;2023-06-22T11:39:36;14.38;;;7.00;;
44048;SDS011;29717;47.028;15.470;2023-06-22T11:42:03;9.38;;;6.90;;
44048;SDS011;29717;47.028;15.470;2023-06-22T11:44:34;8.80;;;6.85;;
44048;SDS011;29717;47.028;15.470;2023-06-22T11:47:02;8.25;;;7.30;;
44048;SDS011;29717;47.028;15.470;2023-06-22T11:49:38;13.55;;;6.82;;
44048;SDS011;29717;47.028;15.470;2023-06-22T11:52:08;14.13;;;7.40;;
44048;SDS011;29717;47.028;15.470;2023-06-22T11:54:39;15.50;;;7.25;;
44048;SDS011;29717;47.028;15.470;2023-06-22T11:57:08;11.80;;;6.65;;
44048;SDS011;29717;47.028;15.470;2023-06-22T11:59:36;10.30;;;7.28;;
44048;SDS011;29717;47.028;15.470;2023-06-22T12:02:03;15.23;;;6.90;;
44048;SDS011;29717;47.028;15.470;2023-06-22T12:04:31;9.75;;;7.32;;
44048;SDS011;29717;47.028;15.470;2023-06-22T12:06:58;12.93;;;7.28;;
44048;SDS011;29717;47.028;15.470;2023-06-22T12:09:32;7.88;;;6.93;;
44048;SDS011;29717;47.028;15.470;2023-06-22T12:11:59;8.77;;;6.43;;
44048;SDS011;29717;47.028;15.470;2023-06-22T12:14:26;11.15;;;6.80;;
44048;SDS011;29717;47.028;15.470;2023-06-22T12:16:54;10.65;;;6.78;;
44048;SDS011;29717;47.028;15.470;2023-06-22T12:19:24;13.40;;;7.45;;
44048;SDS011;29717;47.028;15.470;2023-06-22T12:21:51;13.73;;;8.05;;
44048;SDS011;29717;47.028;15.470;2023-06-22T12:24:18;11.18;;;7.65;;
44048;SDS011;29717;47.028;15.470;2023-06-22T12:26:45;15.35;;;8.10;;
44048;SDS011;29717;47.028;15.470;2023-06-22T12:29:11;13.32;;;7.57;;
44048;SDS011;29717;47.028;15.470;2023-06-22T12:31:38;15.55;;;7.85;;
44048;SDS011;29717;47.028;15.470;2023-06-22T12:34:08;14.35;;;8.52;;
44048;SDS011;29717;47.028;15.470;2023-06-22T12:36:35;15.30;;;7.53;;
44048;SDS011;29717;47.028;15.470;2023-06-22T12:39:01;13.57;;;7.90;;
44048;SDS011;29717;47.028;15.470;2023-06-22T12:41:28;15.43;;;8.20;;
44048;SDS011;29717;47.028;15.470;2023-06-22T12:43:55;13.02;;;8.55;;
44048;SDS011;29717;47.028;15.470;2023-06-22T12:46:22;11.30;;;8.43;;
44048;SDS011;29717;47.028;15.470;2023-06-22T12:48:49;11.45;;;7.72;;
44048;SDS011;29717;47.028;15.470;2023-06-22T12:51:21;15.18;;;8.45;;
44048;SDS011;29717;47.028;15.470;2023-06-22T12:53:48;14.60;;;8.18;;
44048;SDS011;29717;47.028;15.470;2023-06-22T12:56:15;12.93;;;8.57;;
44048;SDS011;29717;47.028;15.470;2023-06-22T12:58:42;13.55;;;8.63;;
44048;SDS011;29717;47.028;15.470;2023-06-22T13:01:10;11.52;;;8.50;;
44048;SDS011;29717;47.028;15.470;2023-06-22T13:03:37;13.32;;;8.48;;
44048;SDS011;29717;47.028;15.470;2023-06-22T13:06:04;11.60;;;8.15;;
44048;SDS011;29717;47.028;15.470;2023-06-22T13:08:32;17.30;;;8.73;;
44048;SDS011;29717;47.028;15.470;2023-06-22T13:10:59;13.73;;;8.55;;
44048;SDS011;29717;47.028;15.470;2023-06-22T13:13:26;16.00;;;8.43;;
44048;SDS011;29717;47.028;15.470;2023-06-22T13:15:53;14.82;;;9.15;;
44048;SDS011;29717;47.028;15.470;2023-06-22T13:18:20;15.50;;;8.90;;
44048;SDS011;29717;47.028;15.470;2023-06-22T13:20:47;13.98;;;8.48;;
44048;SDS011;29717;47.028;15.470;2023-06-22T13:23:14;21.20;;;9.23;;
44048;SDS011;29717;47.028;15.470;2023-06-22T13:25:42;14.55;;;8.70;;
44048;SDS011;29717;47.028;15.470;2023-06-22T13:28:09;13.48;;;8.23;;
44048;SDS011;29717;47.028;15.470;2023-06-22T13:30:38;15.77;;;9.05;;
44048;SDS011;29717;47.028;15.470;2023-06-22T13:33:05;13.52;;;8.63;;
44048;SDS011;29717;47.028;15.470;2023-06-22T13:35:32;11.75;;;9.02;;
44048;SDS011;29717;47.028;15.470;2023-06-22T13:38:00;13.77;;;9.20;;
44048;SDS011;29717;47.028;15.470;2023-06-22T13:40:27;13.15;;;8.25;;
44048;SDS011;29717;47.028;15.470;2023-06-22T13:42:56;16.60;;;9.35;;
44048;SDS011;29717;47.028;15.470;2023-06-22T13:45:22;16.92;;;8.82;;
44048;SDS011;29717;47.028;15.470;2023-06-22T13:47:49;14.23;;;8.82;;
44048;SDS011;29717;47.028;15.470;2023-06-22T13:50:16;13.75;;;8.65;;
44048;SDS011;29717;47.028;15.470;2023-06-22T13:52:43;13.70;;;8.43;;
44048;SDS011;29717;47.028;15.470;2023-06-22T13:55:10;14.68;;;8.98;;
44048;SDS011;29717;47.028;15.470;2023-06-22T13:57:39;11.13;;;9.02;;
44048;SDS011;29717;47.028;15.470;2023-06-22T14:00:08;12.63;;;9.00;;
44048;SDS011;29717;47.028;15.470;2023-06-22T14:02:36;13.82;;;9.60;;
44048;SDS011;29717;47.028;15.470;2023-06-22T14:05:03;15.23;;;9.65;;
44048;SDS011;29717;47.028;15.470;2023-06-22T14:07:30;19.70;;;10.38;;
44048;SDS011;29717;47.028;15.470;2023-06-22T14:09:56;14.05;;;9.40;;
44048;SDS011;29717;47.028;15.470;2023-06-22T14:12:23;17.13;;;9.20;;
44048;SDS011;29717;47.028;15.470;2023-06-22T14:14:50;14.07;;;9.15;;
44048;SDS011;29717;47.028;15.470;2023-06-22T14:17:18;11.75;;;8.93;;
44048;SDS011;29717;47.028;15.470;2023-06-22T14:19:52;12.23;;;8.50;;
44048;SDS011;29717;47.028;15.470;2023-06-22T14:22:19;16.33;;;8.98;;
44048;SDS011;29717;47.028;15.470;2023-06-22T14:24:45;16.52;;;9.65;;